Time;durP1;ratioP1;P1;durP2;ratioP2;P2;SDS_P1;SDS_P2;PMS_P1;PMS_P2;Temp;Humidity;BMP_temperature;BMP_pressure;BME280_temperature;BME280_humidity;BME280_pressure;Samples;Min_cycle;Max_cycle;Signal;HPM_P1;HPM_P2
2022/04/06 00:00:47;;;;;;;11.27;3.10;;;;;;;;;;4970662;28;20766;-74
2022/04/06 00:03:14;;;;;;;9.63;3.40;;;;;;;;;;4956242;28;20188;-75
2022/04/06 00:05:40;;;;;;;8.00;4.25;;;;;;;;;;4956572;28;20224;-75
2022/04/06 00:08:06;;;;;;;4.47;3.05;;;;;;;;;;4956409;28;20213;-74
2022/04/06 00:10:32;;;;;;;8.50;3.60;;;;;;;;;;4956067;28;20181;-74
2022/04/06 00:12:58;;;;;;;7.13;3.47;;;;;;;;;;4956105;28;20287;-75
2022/04/06 00:15:24;;;;;;;5.18;3.00;;;;;;;;;;4956126;28;20198;-74
2022/04/06 00:17:50;;;;;;;6.67;3.40;;;;;;;;;;4955990;28;20186;-75
2022/04/06 00:20:16;;;;;;;7.53;2.60;;;;;;;;;;4955879;28;20969;-75
2022/04/06 00:22:42;;;;;;;9.30;3.75;;;;;;;;;;4956155;28;20464;-74
2022/04/06 00:25:09;;;;;;;12.90;3.38;;;;;;;;;;4956075;28;20182;-74
2022/04/06 00:27:35;;;;;;;10.70;3.50;;;;;;;;;;4955997;28;20299;-74
2022/04/06 00:30:01;;;;;;;7.40;3.47;;;;;;;;;;4955926;28;20619;-75
2022/04/06 00:32:27;;;;;;;8.65;3.17;;;;;;;;;;4956029;28;20519;-74
2022/04/06 00:37:38;;;;;;;11.93;3.15;;;;;;;;;;4955351;28;20295;-74
2022/04/06 00:40:05;;;;;;;5.68;3.25;;;;;;;;;;4955900;28;20574;-74
2022/04/06 00:42:31;;;;;;;6.15;2.90;;;;;;;;;;4955489;28;20198;-76
2022/04/06 00:44:57;;;;;;;7.97;3.35;;;;;;;;;;4955915;28;20257;-73
2022/04/06 00:47:23;;;;;;;8.17;3.40;;;;;;;;;;4955626;28;20308;-74
2022/04/06 00:49:49;;;;;;;10.93;2.70;;;;;;;;;;4955708;28;20419;-74
2022/04/06 00:52:15;;;;;;;7.28;2.75;;;;;;;;;;4955339;28;20449;-74
2022/04/06 00:54:41;;;;;;;8.07;3.30;;;;;;;;;;4955662;28;20173;-76
2022/04/06 00:57:08;;;;;;;4.63;2.40;;;;;;;;;;4955565;28;20186;-74
2022/04/06 00:59:34;;;;;;;9.50;3.22;;;;;;;;;;4955490;28;20229;-73
2022/04/06 01:02:00;;;;;;;10.73;2.70;;;;;;;;;;4954958;28;20201;-75
2022/04/06 01:04:26;;;;;;;7.72;2.50;;;;;;;;;;4954194;28;20941;-74
2022/04/06 01:06:52;;;;;;;8.55;3.83;;;;;;;;;;4954963;28;20260;-74
2022/04/06 01:09:19;;;;;;;5.43;2.78;;;;;;;;;;4955280;28;20173;-75
2022/04/06 01:11:46;;;;;;;6.30;3.05;;;;;;;;;;4954927;28;20282;-75
2022/04/06 01:14:13;;;;;;;5.20;2.40;;;;;;;;;;4955327;28;20173;-76
2022/04/06 01:16:39;;;;;;;3.70;1.95;;;;;;;;;;4955360;28;20201;-75
2022/04/06 01:19:05;;;;;;;5.50;2.63;;;;;;;;;;4954948;28;20192;-74
2022/04/06 01:21:31;;;;;;;6.63;2.50;;;;;;;;;;4954737;28;20229;-75
2022/04/06 01:23:57;;;;;;;11.57;2.88;;;;;;;;;;4955229;28;20205;-75
2022/04/06 01:26:24;;;;;;;8.75;3.10;;;;;;;;;;4955230;28;20208;-74
2022/04/06 01:28:50;;;;;;;7.78;2.92;;;;;;;;;;4955328;28;20181;-74
2022/04/06 01:31:16;;;;;;;5.80;3.03;;;;;;;;;;4954794;28;20192;-75
2022/04/06 01:33:42;;;;;;;5.28;2.88;;;;;;;;;;4954320;28;20424;-74
2022/04/06 01:36:08;;;;;;;7.27;3.17;;;;;;;;;;4954023;29;20181;-76
2022/04/06 01:38:35;;;;;;;8.55;2.30;;;;;;;;;;4955055;28;20950;-75
2022/04/06 01:41:01;;;;;;;5.85;2.40;;;;;;;;;;4954767;28;20213;-75
2022/04/06 01:43:27;;;;;;;8.07;2.73;;;;;;;;;;4955053;28;20192;-75
2022/04/06 01:45:53;;;;;;;7.70;3.30;;;;;;;;;;4954740;28;20942;-75
2022/04/06 01:48:19;;;;;;;7.25;2.80;;;;;;;;;;4955112;28;20406;-74
2022/04/06 01:53:30;;;;;;;13.13;3.00;;;;;;;;;;4955296;29;20248;-76
2022/04/06 01:55:57;;;;;;;4.53;2.70;;;;;;;;;;4953682;28;20213;-75
2022/04/06 01:58:23;;;;;;;7.68;2.90;;;;;;;;;;4954982;28;20639;-75
2022/04/06 02:00:50;;;;;;;8.23;2.75;;;;;;;;;;4954123;28;20181;-74
2022/04/06 02:03:16;;;;;;;7.15;2.97;;;;;;;;;;4954876;28;20541;-75
2022/04/06 02:05:42;;;;;;;6.38;2.15;;;;;;;;;;4954636;28;20184;-74
2022/04/06 02:08:08;;;;;;;9.80;2.45;;;;;;;;;;4954721;28;20574;-74
2022/04/06 02:10:34;;;;;;;6.72;3.42;;;;;;;;;;4954527;28;20181;-74
2022/04/06 02:13:02;;;;;;;5.85;2.72;;;;;;;;;;4954754;28;20661;-74
2022/04/06 02:15:28;;;;;;;5.53;2.65;;;;;;;;;;4957452;28;20185;-75
2022/04/06 02:17:54;;;;;;;6.32;3.05;;;;;;;;;;4958347;28;20559;-73
2022/04/06 02:20:21;;;;;;;8.45;3.85;;;;;;;;;;4958035;28;20204;-75
2022/04/06 02:22:47;;;;;;;7.25;2.60;;;;;;;;;;4958285;28;20200;-75
2022/04/06 02:25:13;;;;;;;9.27;3.38;;;;;;;;;;4958309;28;20293;-74
2022/04/06 02:27:49;;;;;;;6.43;2.60;;;;;;;;;;4958333;28;20685;-74
2022/04/06 02:30:16;;;;;;;7.05;3.25;;;;;;;;;;4938991;29;20265;-73
2022/04/06 02:32:42;;;;;;;7.00;2.90;;;;;;;;;;4939040;29;20268;-74
2022/04/06 02:35:08;;;;;;;8.30;2.72;;;;;;;;;;4953988;28;20181;-75
2022/04/06 02:37:34;;;;;;;8.27;3.13;;;;;;;;;;4958152;28;20620;-74
2022/04/06 02:40:00;;;;;;;7.97;3.90;;;;;;;;;;4958230;28;20211;-74
2022/04/06 02:42:26;;;;;;;8.10;2.73;;;;;;;;;;4957551;28;20965;-73
2022/04/06 02:44:52;;;;;;;8.53;3.00;;;;;;;;;;4958077;28;20857;-74
2022/04/06 02:47:18;;;;;;;5.03;2.30;;;;;;;;;;4957841;28;20478;-73
2022/04/06 02:49:44;;;;;;;8.30;2.80;;;;;;;;;;4956526;29;20511;-73
2022/04/06 02:52:10;;;;;;;4.43;2.87;;;;;;;;;;4957228;28;20508;-74
2022/04/06 02:54:36;;;;;;;12.30;3.13;;;;;;;;;;4957917;28;20453;-74
2022/04/06 02:57:02;;;;;;;7.75;3.35;;;;;;;;;;4957899;28;20421;-75
2022/04/06 02:59:28;;;;;;;12.13;4.45;;;;;;;;;;4957836;28;20236;-75
2022/04/06 03:01:54;;;;;;;4.87;2.87;;;;;;;;;;4972223;28;20221;-75
2022/04/06 03:04:20;;;;;;;10.20;3.57;;;;;;;;;;4957206;28;20433;-74
2022/04/06 03:06:46;;;;;;;7.33;2.90;;;;;;;;;;4956380;29;21041;-74
2022/04/06 03:09:12;;;;;;;6.13;2.70;;;;;;;;;;4972466;28;20483;-74
2022/04/06 03:11:38;;;;;;;9.30;3.13;;;;;;;;;;4957233;28;20436;-74
2022/04/06 03:14:05;;;;;;;5.33;2.77;;;;;;;;;;4957393;28;20418;-74
2022/04/06 03:16:31;;;;;;;6.10;3.15;;;;;;;;;;4957211;28;20942;-74
2022/04/06 03:18:57;;;;;;;4.37;3.10;;;;;;;;;;4957242;28;20200;-75
2022/04/06 03:21:23;;;;;;;2.83;2.63;;;;;;;;;;4956857;28;20461;-75
2022/04/06 03:23:49;;;;;;;6.03;2.95;;;;;;;;;;4957281;28;20193;-75
2022/04/06 03:26:15;;;;;;;6.17;3.30;;;;;;;;;;4956184;28;20208;-74
2022/04/06 03:28:41;;;;;;;9.90;3.20;;;;;;;;;;4955871;29;20510;-74
2022/04/06 03:31:07;;;;;;;6.70;2.88;;;;;;;;;;4971644;28;20197;-73
2022/04/06 03:33:33;;;;;;;10.15;3.20;;;;;;;;;;4957181;28;20654;-74
2022/04/06 03:35:59;;;;;;;9.27;3.88;;;;;;;;;;4957132;28;20229;-74
2022/04/06 03:38:25;;;;;;;4.93;2.63;;;;;;;;;;4956627;28;20272;-74
2022/04/06 03:40:51;;;;;;;9.43;3.65;;;;;;;;;;4956533;28;20186;-75
2022/04/06 03:43:18;;;;;;;5.13;3.23;;;;;;;;;;4957055;28;20209;-75
2022/04/06 03:45:44;;;;;;;5.47;3.38;;;;;;;;;;4956697;28;20459;-74
2022/04/06 03:48:10;;;;;;;6.75;2.78;;;;;;;;;;4971784;28;20233;-75
2022/04/06 03:50:36;;;;;;;7.28;3.47;;;;;;;;;;4956358;28;20682;-75
2022/04/06 03:53:02;;;;;;;6.33;3.50;;;;;;;;;;4956666;28;20343;-75
2022/04/06 03:55:28;;;;;;;9.95;3.58;;;;;;;;;;4956800;28;20775;-74
2022/04/06 03:57:54;;;;;;;6.03;3.07;;;;;;;;;;4956768;28;20181;-74
2022/04/06 04:00:20;;;;;;;6.50;3.50;;;;;;;;;;4956376;28;20460;-74
2022/04/06 04:02:46;;;;;;;5.60;3.40;;;;;;;;;;4956313;28;20445;-74
2022/04/06 04:05:12;;;;;;;6.22;2.63;;;;;;;;;;4956538;28;20411;-75
2022/04/06 04:07:38;;;;;;;15.10;3.60;;;;;;;;;;4956665;28;20211;-74
2022/04/06 04:10:10;;;;;;;7.30;3.60;;;;;;;;;;4956414;28;20631;-75
2022/04/06 04:12:36;;;;;;;13.32;3.55;;;;;;;;;;4956179;28;20455;-74
2022/04/06 04:15:03;;;;;;;6.45;3.40;;;;;;;;;;4956228;28;20204;-74
2022/04/06 04:17:29;;;;;;;7.03;3.28;;;;;;;;;;4956239;28;20184;-74
2022/04/06 04:19:55;;;;;;;11.15;3.42;;;;;;;;;;4956247;28;20240;-75
2022/04/06 04:22:22;;;;;;;6.07;3.38;;;;;;;;;;4955635;28;20263;-73
2022/04/06 04:24:48;;;;;;;10.43;3.60;;;;;;;;;;4971020;28;20598;-73
2022/04/06 04:27:14;;;;;;;5.73;2.63;;;;;;;;;;4956043;28;20295;-74
2022/04/06 04:29:40;;;;;;;7.55;3.30;;;;;;;;;;4955833;28;20468;-75
2022/04/06 04:32:06;;;;;;;4.70;3.20;;;;;;;;;;4955573;28;20674;-74
2022/04/06 04:34:32;;;;;;;5.82;3.40;;;;;;;;;;4956171;28;20192;-74
2022/04/06 04:36:58;;;;;;;4.57;3.05;;;;;;;;;;4955568;28;20216;-74
2022/04/06 04:39:24;;;;;;;8.32;3.28;;;;;;;;;;4956089;28;20191;-74
2022/04/06 04:41:50;;;;;;;10.00;3.50;;;;;;;;;;4955649;28;20287;-74
2022/04/06 04:44:16;;;;;;;6.53;2.83;;;;;;;;;;4954851;29;20425;-75
2022/04/06 04:46:42;;;;;;;7.53;4.33;;;;;;;;;;4955672;28;20918;-75
2022/04/06 04:49:08;;;;;;;12.03;3.60;;;;;;;;;;4955758;28;20429;-74
2022/04/06 04:51:34;;;;;;;3.97;3.08;;;;;;;;;;4953694;29;20469;-75
2022/04/06 04:54:00;;;;;;;6.87;3.33;;;;;;;;;;4955647;28;20192;-75
2022/04/06 04:56:32;;;;;;;9.23;2.55;;;;;;;;;;4955507;28;20451;-74
2022/04/06 04:58:58;;;;;;;8.32;2.83;;;;;;;;;;4955668;28;20329;-73
2022/04/06 05:01:25;;;;;;;5.93;2.63;;;;;;;;;;4955042;28;20193;-74
2022/04/06 05:03:51;;;;;;;9.57;3.42;;;;;;;;;;4955274;28;20192;-74
2022/04/06 05:06:17;;;;;;;8.98;3.05;;;;;;;;;;4955138;28;20211;-74
2022/04/06 05:08:43;;;;;;;6.47;2.90;;;;;;;;;;4955359;28;20184;-74
2022/04/06 05:11:10;;;;;;;9.23;3.20;;;;;;;;;;4954818;28;20547;-74
2022/04/06 05:13:37;;;;;;;7.45;2.28;;;;;;;;;;4955355;28;20855;-75
2022/04/06 05:16:03;;;;;;;4.95;2.60;;;;;;;;;;4954101;28;20548;-73
2022/04/06 05:18:29;;;;;;;4.35;2.22;;;;;;;;;;4955070;28;20599;-74
2022/04/06 05:20:56;;;;;;;5.95;2.10;;;;;;;;;;4954781;28;20198;-73
2022/04/06 05:23:22;;;;;;;5.63;2.47;;;;;;;;;;4955002;28;20178;-74
2022/04/06 05:25:48;;;;;;;11.43;3.70;;;;;;;;;;4955188;28;20188;-74
2022/04/06 05:28:18;;;;;;;14.43;2.83;;;;;;;;;;4955194;28;20563;-76
2022/04/06 05:30:46;;;;;;;13.07;3.22;;;;;;;;;;4955057;28;20443;-74
2022/04/06 05:33:12;;;;;;;8.45;2.17;;;;;;;;;;4954839;28;20273;-74
2022/04/06 05:35:38;;;;;;;5.63;2.00;;;;;;;;;;4954737;28;20231;-73
2022/04/06 05:38:04;;;;;;;4.57;2.00;;;;;;;;;;4955348;28;20193;-74
2022/04/06 05:40:30;;;;;;;5.63;1.90;;;;;;;;;;4954759;28;20421;-74
2022/04/06 05:42:56;;;;;;;5.43;1.70;;;;;;;;;;4954947;28;20433;-74
2022/04/06 05:45:22;;;;;;;6.97;2.30;;;;;;;;;;4954975;28;20432;-74
2022/04/06 05:47:48;;;;;;;5.10;1.85;;;;;;;;;;4954613;28;20504;-74
2022/04/06 05:50:14;;;;;;;3.00;1.83;;;;;;;;;;4957518;28;20180;-74
2022/04/06 05:52:44;;;;;;;6.07;2.00;;;;;;;;;;4958772;28;20224;-73
2022/04/06 05:55:10;;;;;;;6.40;2.60;;;;;;;;;;4959088;28;20220;-74
2022/04/06 05:57:36;;;;;;;3.47;2.10;;;;;;;;;;4958847;28;20177;-75
2022/04/06 06:00:06;;;;;;;9.27;2.05;;;;;;;;;;4958650;28;20220;-75
2022/04/06 06:02:32;;;;;;;2.70;1.73;;;;;;;;;;4958529;28;20288;-74
2022/04/06 06:04:58;;;;;;;3.23;1.97;;;;;;;;;;4958788;28;20235;-74
2022/04/06 06:07:24;;;;;;;4.27;1.90;;;;;;;;;;4958614;28;20465;-74
2022/04/06 06:09:50;;;;;;;3.63;1.67;;;;;;;;;;4958504;28;20553;-76
2022/04/06 06:12:16;;;;;;;5.53;2.03;;;;;;;;;;4958150;28;20442;-74
2022/04/06 06:14:42;;;;;;;2.30;1.70;;;;;;;;;;4958371;28;20421;-75
2022/04/06 06:17:08;;;;;;;6.50;2.43;;;;;;;;;;4957363;29;20195;-75
2022/04/06 06:19:34;;;;;;;3.50;1.53;;;;;;;;;;4958230;28;20471;-74
2022/04/06 06:22:00;;;;;;;7.22;1.60;;;;;;;;;;4957807;28;20448;-74
2022/04/06 06:24:26;;;;;;;6.63;1.80;;;;;;;;;;4958343;28;20558;-74
2022/04/06 06:26:53;;;;;;;6.95;1.52;;;;;;;;;;4958310;28;20453;-75
2022/04/06 06:29:19;;;;;;;3.70;1.58;;;;;;;;;;4972903;28;20673;-74
2022/04/06 06:31:45;;;;;;;5.47;2.00;;;;;;;;;;4957757;28;20255;-75
2022/04/06 06:34:11;;;;;;;3.77;1.80;;;;;;;;;;4958086;28;20205;-74
2022/04/06 06:36:38;;;;;;;5.65;1.38;;;;;;;;;;4957610;28;20434;-74
2022/04/06 06:39:04;;;;;;;2.80;1.58;;;;;;;;;;4957861;28;20268;-75
2022/04/06 06:41:31;;;;;;;4.13;2.13;;;;;;;;;;4957334;28;20214;-73
2022/04/06 06:43:58;;;;;;;6.13;1.92;;;;;;;;;;4957846;28;20179;-74
2022/04/06 06:46:24;;;;;;;3.03;1.75;;;;;;;;;;4957757;28;20209;-75
2022/04/06 06:48:51;;;;;;;4.55;1.70;;;;;;;;;;4958019;28;20185;-75
2022/04/06 06:51:17;;;;;;;5.90;1.65;;;;;;;;;;4957139;28;20260;-75
2022/04/06 06:53:44;;;;;;;6.05;1.70;;;;;;;;;;4957662;28;20173;-75
2022/04/06 06:56:10;;;;;;;4.93;1.65;;;;;;;;;;4957613;28;20189;-75
2022/04/06 06:58:36;;;;;;;2.53;2.00;;;;;;;;;;4957629;28;20175;-74
2022/04/06 07:01:02;;;;;;;2.47;1.30;;;;;;;;;;4955835;28;20199;-75
2022/04/06 07:03:28;;;;;;;3.42;1.65;;;;;;;;;;4957550;28;20602;-75
2022/04/06 07:05:54;;;;;;;3.03;1.10;;;;;;;;;;4957357;28;20206;-74
2022/04/06 07:08:20;;;;;;;1.90;1.70;;;;;;;;;;4957137;28;20471;-76
2022/04/06 07:10:47;;;;;;;3.38;1.45;;;;;;;;;;4957151;28;20175;-75
2022/04/06 07:13:15;;;;;;;3.60;1.60;;;;;;;;;;4957503;28;20188;-76
2022/04/06 07:15:41;;;;;;;7.25;2.00;;;;;;;;;;4957466;28;20174;-75
2022/04/06 07:18:08;;;;;;;5.53;1.30;;;;;;;;;;4957289;28;20248;-75
2022/04/06 07:20:37;;;;;;;3.47;1.67;;;;;;;;;;4956952;28;20413;-74
2022/04/06 07:23:04;;;;;;;5.03;1.83;;;;;;;;;;4957310;28;20181;-75
2022/04/06 07:25:30;;;;;;;2.20;1.38;;;;;;;;;;4957239;28;20173;-75
2022/04/06 07:27:56;;;;;;;2.58;1.50;;;;;;;;;;4957166;28;20579;-75
2022/04/06 07:30:22;;;;;;;3.03;1.75;;;;;;;;;;4956696;28;20607;-75
2022/04/06 07:32:48;;;;;;;2.95;1.45;;;;;;;;;;4957278;28;20601;-74
2022/04/06 07:35:16;;;;;;;11.55;1.65;;;;;;;;;;4957329;28;20181;-75
2022/04/06 07:37:43;;;;;;;1.45;1.08;;;;;;;;;;4957293;28;20193;-74
2022/04/06 07:40:10;;;;;;;3.80;1.10;;;;;;;;;;4957174;28;20251;-76
2022/04/06 07:42:36;;;;;;;4.18;1.30;;;;;;;;;;4956864;28;20205;-75
2022/04/06 07:45:09;;;;;;;2.75;1.20;;;;;;;;;;4957064;28;20213;-75
2022/04/06 07:47:37;;;;;;;4.85;1.10;;;;;;;;;;4956755;28;20215;-76
2022/04/06 07:50:04;;;;;;;1.88;1.55;;;;;;;;;;4956658;28;20687;-77
2022/04/06 07:52:30;;;;;;;2.30;1.42;;;;;;;;;;4956347;28;20239;-75
2022/04/06 07:54:56;;;;;;;4.45;1.42;;;;;;;;;;4956866;28;20181;-74
2022/04/06 07:57:25;;;;;;;7.97;1.37;;;;;;;;;;4957012;28;20195;-74
2022/04/06 07:59:52;;;;;;;3.53;1.17;;;;;;;;;;4971636;28;20432;-74
2022/04/06 08:02:18;;;;;;;3.92;1.20;;;;;;;;;;4956326;28;20212;-75
2022/04/06 08:04:44;;;;;;;4.15;2.00;;;;;;;;;;4956242;28;20173;-75
2022/04/06 08:07:10;;;;;;;9.50;2.22;;;;;;;;;;4956564;28;20754;-76
2022/04/06 08:09:36;;;;;;;7.43;1.83;;;;;;;;;;4956295;28;20217;-74
2022/04/06 08:12:03;;;;;;;3.10;1.70;;;;;;;;;;4955238;28;20227;-76
2022/04/06 08:14:29;;;;;;;3.53;1.45;;;;;;;;;;4956187;28;20422;-74
2022/04/06 08:16:55;;;;;;;1.67;1.30;;;;;;;;;;4955084;29;20185;-75
2022/04/06 08:19:22;;;;;;;3.40;1.42;;;;;;;;;;4956245;28;20183;-76
2022/04/06 08:21:49;;;;;;;4.18;1.65;;;;;;;;;;4955838;28;20228;-75
2022/04/06 08:24:14;;;;;;;5.75;1.48;;;;;;;;;;4970923;28;20179;-75
2022/04/06 08:26:41;;;;;;;2.97;1.40;;;;;;;;;;4955928;28;20577;-75
2022/04/06 08:29:07;;;;;;;5.05;1.40;;;;;;;;;;4970923;28;20505;-76
2022/04/06 08:31:33;;;;;;;5.88;1.30;;;;;;;;;;4955651;28;20288;-76
2022/04/06 08:33:59;;;;;;;3.27;1.47;;;;;;;;;;4954986;29;20268;-75
2022/04/06 08:36:25;;;;;;;6.20;1.90;;;;;;;;;;4956006;28;20412;-75
2022/04/06 08:38:51;;;;;;;2.70;1.20;;;;;;;;;;4955690;28;20185;-75
2022/04/06 08:41:17;;;;;;;3.53;1.42;;;;;;;;;;4955348;28;20449;-76
2022/04/06 08:43:43;;;;;;;3.88;1.38;;;;;;;;;;4956167;28;20527;-75
2022/04/06 08:46:10;;;;;;;4.15;1.52;;;;;;;;;;4955926;28;20181;-75
2022/04/06 08:48:37;;;;;;;4.88;1.40;;;;;;;;;;4958804;28;20649;-76
2022/04/06 08:51:07;;;;;;;5.57;1.80;;;;;;;;;;4959897;28;20233;-75
2022/04/06 08:53:34;;;;;;;4.35;1.77;;;;;;;;;;4960911;28;20664;-75
2022/04/06 08:56:00;;;;;;;4.65;1.10;;;;;;;;;;4955903;28;20574;-75
2022/04/06 08:58:25;;;;;;;3.60;2.33;;;;;;;;;;4955399;28;20185;-74
2022/04/06 09:00:51;;;;;;;3.40;1.43;;;;;;;;;;4954896;28;20186;-74
2022/04/06 09:03:21;;;;;;;4.25;1.73;;;;;;;;;;4954976;28;20808;-74
2022/04/06 09:05:59;;;;;;;6.78;1.55;;;;;;;;;;4954886;28;20548;-75
2022/04/06 09:08:33;;;;;;;3.90;1.13;;;;;;;;;;4954861;28;20613;-75
2022/04/06 09:11:06;;;;;;;3.00;1.88;;;;;;;;;;4954553;28;20226;-75
2022/04/06 09:13:32;;;;;;;5.90;1.33;;;;;;;;;;4953021;28;20185;-75
2022/04/06 09:16:01;;;;;;;7.87;1.43;;;;;;;;;;4955474;28;20228;-75
2022/04/06 09:18:34;;;;;;;8.38;1.52;;;;;;;;;;4955333;28;20453;-75
2022/04/06 09:21:01;;;;;;;1.90;1.15;;;;;;;;;;4954461;28;20573;-74
2022/04/06 09:23:29;;;;;;;1.27;0.90;;;;;;;;;;4954086;28;20188;-74
2022/04/06 09:25:55;;;;;;;2.00;1.27;;;;;;;;;;4954731;28;20705;-75
2022/04/06 09:28:21;;;;;;;7.77;1.60;;;;;;;;;;4955014;28;20298;-75
2022/04/06 09:30:47;;;;;;;4.10;1.15;;;;;;;;;;4954737;28;20426;-76
2022/04/06 09:33:14;;;;;;;4.32;1.45;;;;;;;;;;4955085;28;20617;-75
2022/04/06 09:35:41;;;;;;;1.35;0.93;;;;;;;;;;4955145;28;20173;-76
2022/04/06 09:38:11;;;;;;;3.33;1.20;;;;;;;;;;4955278;28;20178;-75
2022/04/06 09:40:37;;;;;;;6.28;2.13;;;;;;;;;;4954848;28;20210;-75
2022/04/06 09:43:04;;;;;;;2.92;1.10;;;;;;;;;;4955253;28;20200;-74
2022/04/06 09:48:15;;;;;;;6.50;1.35;;;;;;;;;;4955023;29;20313;-73
2022/04/06 09:50:42;;;;;;;3.93;1.30;;;;;;;;;;4954515;28;20264;-73
2022/04/06 09:53:08;;;;;;;4.05;1.10;;;;;;;;;;4954907;28;20478;-76
2022/04/06 09:55:34;;;;;;;6.20;1.10;;;;;;;;;;4954415;28;20174;-75
2022/04/06 09:58:05;;;;;;;5.90;1.30;;;;;;;;;;4954492;28;20556;-75
2022/04/06 10:00:32;;;;;;;2.83;1.17;;;;;;;;;;4954196;28;20449;-74
2022/04/06 10:03:00;;;;;;;2.83;1.05;;;;;;;;;;4954703;28;20241;-73
2022/04/06 10:05:28;;;;;;;4.57;1.30;;;;;;;;;;4954820;28;20181;-76
2022/04/06 10:07:55;;;;;;;3.75;1.20;;;;;;;;;;4954738;28;20210;-75
2022/04/06 10:10:24;;;;;;;2.22;0.90;;;;;;;;;;4954459;28;20178;-77
2022/04/06 10:12:51;;;;;;;2.80;1.00;;;;;;;;;;4954351;28;20202;-77
2022/04/06 10:15:17;;;;;;;2.80;1.30;;;;;;;;;;4954725;28;20261;-77
2022/04/06 10:17:43;;;;;;;3.38;1.20;;;;;;;;;;4954639;28;20182;-75
2022/04/06 10:20:13;;;;;;;3.85;1.45;;;;;;;;;;4954417;28;20182;-78
2022/04/06 10:22:54;;;;;;;4.07;1.08;;;;;;;;;;4954450;28;20209;-75
2022/04/06 10:25:29;;;;;;;4.18;1.40;;;;;;;;;;4954626;28;20185;-75
2022/04/06 10:27:56;;;;;;;5.20;0.95;;;;;;;;;;4954463;28;20203;-75
2022/04/06 10:30:23;;;;;;;4.70;1.00;;;;;;;;;;4969002;28;20174;-74
2022/04/06 10:32:51;;;;;;;4.57;1.02;;;;;;;;;;4954034;28;20193;-75
2022/04/06 10:35:23;;;;;;;6.00;1.27;;;;;;;;;;4955190;28;20514;-74
2022/04/06 10:37:58;;;;;;;2.30;0.85;;;;;;;;;;4957984;28;20590;-74
2022/04/06 10:40:24;;;;;;;2.67;0.88;;;;;;;;;;4957734;28;20651;-74
2022/04/06 10:42:51;;;;;;;3.08;1.05;;;;;;;;;;4958166;28;20200;-74
2022/04/06 10:45:29;;;;;;;1.98;0.95;;;;;;;;;;4957950;28;20181;-74
2022/04/06 10:48:14;;;;;;;2.05;1.02;;;;;;;;;;4957884;28;20213;-75
2022/04/06 10:50:40;;;;;;;1.33;0.90;;;;;;;;;;4957547;28;20179;-74
2022/04/06 10:53:21;;;;;;;2.38;0.90;;;;;;;;;;4957964;28;20263;-72
2022/04/06 10:55:57;;;;;;;3.55;1.10;;;;;;;;;;4972883;28;20187;-75
2022/04/06 10:58:25;;;;;;;5.53;2.17;;;;;;;;;;4957880;28;20175;-74
2022/04/06 11:01:11;;;;;;;2.88;1.27;;;;;;;;;;4957468;28;20560;-74
2022/04/06 11:03:41;;;;;;;3.10;1.08;;;;;;;;;;4956763;28;20655;-74
2022/04/06 11:06:07;;;;;;;3.20;0.80;;;;;;;;;;4957565;28;20668;-74
2022/04/06 11:11:39;;;;;;;1.52;1.10;;;;;;;;;;4957103;28;20801;-74
2022/04/06 11:14:05;;;;;;;2.45;0.82;;;;;;;;;;4957293;28;20182;-74
2022/04/06 11:16:40;;;;;;;1.90;0.85;;;;;;;;;;4957552;28;20174;-74
2022/04/06 11:19:07;;;;;;;2.03;1.35;;;;;;;;;;4957216;28;20175;-74
2022/04/06 11:21:33;;;;;;;2.15;0.88;;;;;;;;;;4957091;28;20208;-74
2022/04/06 11:23:59;;;;;;;1.95;1.20;;;;;;;;;;4957161;28;20255;-73
2022/04/06 11:26:26;;;;;;;4.63;1.07;;;;;;;;;;4957275;28;20194;-74
2022/04/06 11:29:01;;;;;;;2.65;1.10;;;;;;;;;;4972098;28;20418;-74
2022/04/06 11:31:27;;;;;;;2.97;1.20;;;;;;;;;;4956790;28;20205;-75
2022/04/06 11:33:53;;;;;;;2.80;0.87;;;;;;;;;;4957239;28;20192;-73
2022/04/06 11:36:19;;;;;;;2.70;0.87;;;;;;;;;;4956894;28;20478;-74
2022/04/06 11:38:49;;;;;;;1.93;1.00;;;;;;;;;;4957083;28;20500;-74
2022/04/06 11:41:15;;;;;;;2.10;0.90;;;;;;;;;;4956653;28;20427;-73
2022/04/06 11:43:46;;;;;;;2.37;1.03;;;;;;;;;;4957046;28;20507;-74
2022/04/06 11:46:12;;;;;;;1.63;1.10;;;;;;;;;;4956634;28;20427;-74
2022/04/06 11:48:39;;;;;;;1.10;0.83;;;;;;;;;;4956436;28;20411;-74
2022/04/06 11:51:05;;;;;;;3.27;0.87;;;;;;;;;;4956253;28;20446;-75
2022/04/06 11:53:31;;;;;;;2.53;1.00;;;;;;;;;;4956931;28;20812;-74
2022/04/06 11:55:59;;;;;;;2.20;0.80;;;;;;;;;;4956847;28;20422;-75
2022/04/06 11:58:39;;;;;;;1.67;0.90;;;;;;;;;;4956611;28;20829;-76
2022/04/06 12:01:06;;;;;;;1.48;1.05;;;;;;;;;;4956329;28;20437;-74
2022/04/06 12:03:33;;;;;;;0.93;0.70;;;;;;;;;;4956632;28;20185;-74
2022/04/06 12:05:59;;;;;;;1.63;0.70;;;;;;;;;;4956621;28;20454;-75
2022/04/06 12:08:25;;;;;;;1.67;1.00;;;;;;;;;;4956582;28;20474;-74
2022/04/06 12:10:58;;;;;;;1.67;1.00;;;;;;;;;;4956281;28;20784;-75
2022/04/06 12:13:25;;;;;;;1.88;0.90;;;;;;;;;;4956469;28;20509;-73
2022/04/06 12:15:54;;;;;;;1.33;0.75;;;;;;;;;;4956442;28;20597;-75
2022/04/06 12:18:21;;;;;;;1.27;1.03;;;;;;;;;;4956206;28;20219;-74
2022/04/06 12:20:47;;;;;;;3.28;0.90;;;;;;;;;;4955800;28;20427;-74
2022/04/06 12:23:14;;;;;;;2.20;1.23;;;;;;;;;;4956223;28;20254;-76
2022/04/06 12:25:40;;;;;;;1.92;1.00;;;;;;;;;;4956102;28;20410;-75
2022/04/06 12:28:09;;;;;;;3.37;1.30;;;;;;;;;;4956217;28;20208;-74
2022/04/06 12:30:35;;;;;;;0.95;0.80;;;;;;;;;;4955473;28;20485;-74
2022/04/06 12:33:01;;;;;;;2.83;1.20;;;;;;;;;;4955006;29;20600;-75
2022/04/06 12:35:27;;;;;;;3.50;1.20;;;;;;;;;;4970834;28;20434;-74
2022/04/06 12:37:53;;;;;;;4.50;1.00;;;;;;;;;;4956184;28;20477;-74
2022/04/06 12:40:26;;;;;;;2.10;1.00;;;;;;;;;;4955684;28;20918;-75
2022/04/06 12:42:53;;;;;;;2.70;0.95;;;;;;;;;;4956218;28;20457;-76
2022/04/06 12:45:19;;;;;;;5.57;1.13;;;;;;;;;;4955595;28;20184;-74
2022/04/06 12:47:45;;;;;;;4.55;1.10;;;;;;;;;;4955739;28;20241;-74
2022/04/06 12:50:11;;;;;;;2.25;0.80;;;;;;;;;;4955530;28;20240;-74
2022/04/06 12:52:37;;;;;;;2.15;1.20;;;;;;;;;;4955385;28;20214;-74
2022/04/06 12:55:03;;;;;;;7.70;1.10;;;;;;;;;;4970730;28;20727;-74
2022/04/06 12:57:31;;;;;;;4.97;1.33;;;;;;;;;;4955807;28;20177;-74
2022/04/06 12:59:58;;;;;;;2.05;1.00;;;;;;;;;;4955436;28;20236;-74
2022/04/06 13:02:27;;;;;;;2.95;1.13;;;;;;;;;;4955291;28;20620;-74
2022/04/06 13:04:54;;;;;;;2.95;1.17;;;;;;;;;;4955576;28;20265;-75
2022/04/06 13:07:20;;;;;;;2.15;1.00;;;;;;;;;;4955480;28;20690;-75
2022/04/06 13:09:50;;;;;;;4.15;1.30;;;;;;;;;;4955482;28;20184;-74
2022/04/06 13:12:20;;;;;;;2.33;1.27;;;;;;;;;;4954981;28;20193;-75
2022/04/06 13:14:46;;;;;;;3.20;1.20;;;;;;;;;;4955294;28;20298;-73
2022/04/06 13:17:12;;;;;;;2.25;1.00;;;;;;;;;;4955316;28;20273;-76
2022/04/06 13:19:38;;;;;;;1.58;1.00;;;;;;;;;;4955234;28;20657;-74
2022/04/06 13:22:07;;;;;;;1.80;1.10;;;;;;;;;;4955027;28;20210;-74
2022/04/06 13:24:34;;;;;;;5.45;1.20;;;;;;;;;;4955227;28;20442;-74
2022/04/06 13:27:01;;;;;;;1.48;1.10;;;;;;;;;;4955372;28;20213;-75
2022/04/06 13:29:27;;;;;;;5.53;0.90;;;;;;;;;;4955095;28;20182;-75
2022/04/06 13:31:53;;;;;;;3.92;1.40;;;;;;;;;;4969663;28;20243;-74
2022/04/06 13:34:20;;;;;;;1.50;1.10;;;;;;;;;;4954527;28;20180;-74
2022/04/06 13:36:47;;;;;;;1.73;1.20;;;;;;;;;;4954650;28;20237;-76
2022/04/06 13:39:13;;;;;;;3.30;1.20;;;;;;;;;;4954432;28;20284;-75
2022/04/06 13:41:40;;;;;;;3.10;1.08;;;;;;;;;;4954753;28;20226;-74
2022/04/06 13:44:07;;;;;;;3.05;1.10;;;;;;;;;;4955335;28;20256;-75
2022/04/06 13:46:33;;;;;;;1.17;1.07;;;;;;;;;;4955154;28;20179;-74
2022/04/06 13:48:59;;;;;;;2.63;1.10;;;;;;;;;;4955149;28;20425;-75
2022/04/06 13:51:26;;;;;;;2.97;1.20;;;;;;;;;;4954131;28;20448;-74
2022/04/06 13:53:52;;;;;;;3.65;1.30;;;;;;;;;;4954303;28;20169;-74
2022/04/06 13:56:18;;;;;;;1.38;1.10;;;;;;;;;;4954312;28;20626;-73
2022/04/06 13:58:44;;;;;;;1.20;0.87;;;;;;;;;;4954282;28;20190;-73
2022/04/06 14:01:10;;;;;;;2.23;1.47;;;;;;;;;;4953590;28;20927;-75
2022/04/06 14:03:38;;;;;;;3.87;1.40;;;;;;;;;;4953983;28;20504;-74
2022/04/06 14:06:04;;;;;;;4.18;1.27;;;;;;;;;;4954363;28;20418;-75
2022/04/06 14:08:31;;;;;;;1.88;1.00;;;;;;;;;;4953860;28;20213;-75
2022/04/06 14:10:57;;;;;;;2.03;1.10;;;;;;;;;;4955624;28;20205;-75
2022/04/06 14:13:24;;;;;;;1.10;1.00;;;;;;;;;;4957172;28;20179;-76
2022/04/06 14:15:50;;;;;;;2.03;1.02;;;;;;;;;;4957336;28;20182;-75
2022/04/06 14:18:18;;;;;;;2.60;1.48;;;;;;;;;;4957390;28;20656;-75
2022/04/06 14:20:44;;;;;;;2.25;1.17;;;;;;;;;;4956974;28;20584;-74
2022/04/06 14:23:11;;;;;;;1.92;1.35;;;;;;;;;;4957201;28;20572;-73
2022/04/06 14:25:37;;;;;;;4.50;1.00;;;;;;;;;;4956904;28;20190;-74
2022/04/06 14:28:03;;;;;;;1.67;1.08;;;;;;;;;;4957094;28;20210;-75
2022/04/06 14:30:31;;;;;;;2.78;1.17;;;;;;;;;;4956737;28;20250;-75
2022/04/06 14:32:58;;;;;;;4.03;1.70;;;;;;;;;;4956963;28;20577;-75
2022/04/06 14:35:24;;;;;;;3.80;1.58;;;;;;;;;;4956821;28;20193;-74
2022/04/06 14:37:50;;;;;;;3.55;1.10;;;;;;;;;;4957073;28;20233;-74
2022/04/06 14:40:17;;;;;;;1.65;1.17;;;;;;;;;;4956575;28;20565;-74
2022/04/06 14:42:43;;;;;;;2.60;1.17;;;;;;;;;;4957055;28;20241;-74
2022/04/06 14:45:09;;;;;;;1.45;1.00;;;;;;;;;;4956962;28;20237;-75
2022/04/06 14:47:36;;;;;;;3.85;1.10;;;;;;;;;;4956635;28;20209;-73
2022/04/06 14:50:03;;;;;;;2.30;1.27;;;;;;;;;;4956708;28;20171;-75
2022/04/06 14:52:29;;;;;;;3.20;1.25;;;;;;;;;;4919427;28;1107196;-74